Terminal Aerodrome Forecast
Issued by NWS Denver/Boulder, CO

Home | Current Version | Previous Version | Text Only | Print | Product List | Glossary On
Versions: 1 2 3 4 5 6 7 8 9 10 11 12 13 14 15 16 17 18 19 20 21 22 23 24 25 26 27 28 29 30 31 32 33 34 35 36 37 38 39 40 41 42 43 44 45
000
FTUS45 KBOU 210258 AAC
TAFDEN
TAF AMD
KDEN 210258Z 2103/2206 06007KT P6SM SCT100 SCT200
     FM210500 09006KT P6SM BKN100
     FM210700 19008KT P6SM BKN100
     FM211300 VRB04KT P6SM SCT070 BKN090
     FM211600 35012KT P6SM BKN045 BKN070
     FM211800 03012G20KT P6SM BKN050 OVC080 PROB30 2118/2122 -SHRA
     FM212200 07011KT P6SM VCSH SCT060 BKN080
     FM220400 02008KT P6SM SCT045 BKN060 PROB30 2204/2206 -SHRA
      OVC040=

USA.gov is the U.S. government's official web portal to all federal, state and local government web resources and services.